Terminal Aerodrome Forecast
Issued by NWS

Home | Current Version | Previous Version | Text Only | Print | Product List | Glossary On
Versions: 1 2 3 4 5 6 7 8 9 10 11 12 13 14
000
FTUS41 KAKQ 301100
TAFPHF
TAF
KPHF 301140Z 3012/3112 32014G22KT P6SM BKN050
     FM301800 32020G28KT P6SM BKN050
     FM302200 31016G23KT P6SM SCT040
     FM310600 34010KT P6SM SKC=

USA.gov is the U.S. government's official web portal to all federal, state and local government web resources and services.